sensor_id;sensor_type;location;lat;lon;timestamp;temperature;humidity
48768;DHT22;34933;40.968;14.538;2023-07-30T00:02:10;22.60;99.90
48768;DHT22;34933;40.968;14.538;2023-07-30T00:04:55;22.50;99.90
48768;DHT22;34933;40.968;14.538;2023-07-30T00:07:39;22.50;99.90
48768;DHT22;34933;40.968;14.538;2023-07-30T00:10:23;22.50;99.90
48768;DHT22;34933;40.968;14.538;2023-07-30T00:13:08;22.50;99.90
48768;DHT22;34933;40.968;14.538;2023-07-30T00:15:52;22.40;99.90
48768;DHT22;34933;40.968;14.538;2023-07-30T00:18:36;22.40;99.90
48768;DHT22;34933;40.968;14.538;2023-07-30T00:21:20;22.40;99.90
48768;DHT22;34933;40.968;14.538;2023-07-30T00:24:04;22.40;99.90
48768;DHT22;34933;40.968;14.538;2023-07-30T00:26:48;22.30;99.90
48768;DHT22;34933;40.968;14.538;2023-07-30T00:29:33;22.40;99.90
48768;DHT22;34933;40.968;14.538;2023-07-30T00:32:17;22.40;99.90
48768;DHT22;34933;40.968;14.538;2023-07-30T00:35:02;22.40;99.90
48768;DHT22;34933;40.968;14.538;2023-07-30T00:37:47;22.40;99.90
48768;DHT22;34933;40.968;14.538;2023-07-30T00:40:32;22.40;99.90
48768;DHT22;34933;40.968;14.538;2023-07-30T00:43:16;22.40;99.90
48768;DHT22;34933;40.968;14.538;2023-07-30T00:46:00;22.40;99.90
48768;DHT22;34933;40.968;14.538;2023-07-30T00:48:45;22.40;99.90
48768;DHT22;34933;40.968;14.538;2023-07-30T00:51:30;22.40;99.90
48768;DHT22;34933;40.968;14.538;2023-07-30T00:54:15;22.30;99.90
48768;DHT22;34933;40.968;14.538;2023-07-30T00:56:59;22.20;99.90
48768;DHT22;34933;40.968;14.538;2023-07-30T00:59:44;22.20;99.90
48768;DHT22;34933;40.968;14.538;2023-07-30T01:02:29;22.20;99.90
48768;DHT22;34933;40.968;14.538;2023-07-30T01:05:14;22.20;99.90
48768;DHT22;34933;40.968;14.538;2023-07-30T01:07:58;22.20;99.90
48768;DHT22;34933;40.968;14.538;2023-07-30T01:10:43;22.20;99.90
48768;DHT22;34933;40.968;14.538;2023-07-30T01:13:27;22.20;99.90
48768;DHT22;34933;40.968;14.538;2023-07-30T01:16:12;22.10;99.90
48768;DHT22;34933;40.968;14.538;2023-07-30T01:18:56;22.10;99.90
48768;DHT22;34933;40.968;14.538;2023-07-30T01:21:43;22.00;99.90
48768;DHT22;34933;40.968;14.538;2023-07-30T01:24:27;22.10;99.90
48768;DHT22;34933;40.968;14.538;2023-07-30T01:27:14;22.10;99.90
48768;DHT22;34933;40.968;14.538;2023-07-30T01:30:19;22.00;99.90
48768;DHT22;34933;40.968;14.538;2023-07-30T01:33:05;22.00;99.90
48768;DHT22;34933;40.968;14.538;2023-07-30T01:35:50;21.90;99.90
48768;DHT22;34933;40.968;14.538;2023-07-30T01:38:35;21.80;99.90
48768;DHT22;34933;40.968;14.538;2023-07-30T01:41:20;21.80;99.90
48768;DHT22;34933;40.968;14.538;2023-07-30T01:44:04;21.80;99.90
48768;DHT22;34933;40.968;14.538;2023-07-30T01:46:48;21.70;99.90
48768;DHT22;34933;40.968;14.538;2023-07-30T01:49:33;21.70;99.90
48768;DHT22;34933;40.968;14.538;2023-07-30T01:52:17;21.70;99.90
48768;DHT22;34933;40.968;14.538;2023-07-30T01:55:02;21.80;99.90
48768;DHT22;34933;40.968;14.538;2023-07-30T01:57:46;21.80;99.90
48768;DHT22;34933;40.968;14.538;2023-07-30T02:00:31;21.70;99.90
48768;DHT22;34933;40.968;14.538;2023-07-30T02:03:21;21.70;99.90
48768;DHT22;34933;40.968;14.538;2023-07-30T02:06:05;21.70;99.90
48768;DHT22;34933;40.968;14.538;2023-07-30T02:08:50;21.70;99.90
48768;DHT22;34933;40.968;14.538;2023-07-30T02:11:34;21.60;99.90
48768;DHT22;34933;40.968;14.538;2023-07-30T02:14:19;21.60;99.90
48768;DHT22;34933;40.968;14.538;2023-07-30T02:17:06;21.60;99.90
48768;DHT22;34933;40.968;14.538;2023-07-30T02:19:50;21.50;99.90
48768;DHT22;34933;40.968;14.538;2023-07-30T02:22:34;21.50;99.90
48768;DHT22;34933;40.968;14.538;2023-07-30T02:25:19;21.50;99.90
48768;DHT22;34933;40.968;14.538;2023-07-30T02:28:04;21.40;99.90
48768;DHT22;34933;40.968;14.538;2023-07-30T02:30:48;21.40;99.90
48768;DHT22;34933;40.968;14.538;2023-07-30T02:33:33;21.30;99.90
48768;DHT22;34933;40.968;14.538;2023-07-30T02:36:17;21.30;99.90
48768;DHT22;34933;40.968;14.538;2023-07-30T02:39:01;21.20;99.90
48768;DHT22;34933;40.968;14.538;2023-07-30T02:41:45;21.10;99.90
48768;DHT22;34933;40.968;14.538;2023-07-30T02:44:30;21.20;99.90
48768;DHT22;34933;40.968;14.538;2023-07-30T02:47:14;21.20;99.90
48768;DHT22;34933;40.968;14.538;2023-07-30T02:49:58;21.10;99.90
48768;DHT22;34933;40.968;14.538;2023-07-30T02:52:42;21.10;99.90
48768;DHT22;34933;40.968;14.538;2023-07-30T02:55:26;21.10;99.90
48768;DHT22;34933;40.968;14.538;2023-07-30T02:58:11;21.10;99.90
48768;DHT22;34933;40.968;14.538;2023-07-30T03:00:55;21.10;99.90
48768;DHT22;34933;40.968;14.538;2023-07-30T03:03:39;21.10;99.90
48768;DHT22;34933;40.968;14.538;2023-07-30T03:06:23;21.20;99.90
48768;DHT22;34933;40.968;14.538;2023-07-30T03:09:08;21.20;99.90
48768;DHT22;34933;40.968;14.538;2023-07-30T03:11:52;21.20;99.90
48768;DHT22;34933;40.968;14.538;2023-07-30T03:14:36;21.20;99.90
48768;DHT22;34933;40.968;14.538;2023-07-30T03:17:21;21.20;99.90
48768;DHT22;34933;40.968;14.538;2023-07-30T03:20:06;21.10;99.90
48768;DHT22;34933;40.968;14.538;2023-07-30T03:22:50;21.10;99.90
48768;DHT22;34933;40.968;14.538;2023-07-30T03:25:35;21.10;99.90
48768;DHT22;34933;40.968;14.538;2023-07-30T03:28:19;21.00;99.90
48768;DHT22;34933;40.968;14.538;2023-07-30T03:31:03;21.10;99.90
48768;DHT22;34933;40.968;14.538;2023-07-30T03:33:47;21.10;99.90
48768;DHT22;34933;40.968;14.538;2023-07-30T03:36:32;21.10;99.90
48768;DHT22;34933;40.968;14.538;2023-07-30T03:39:16;21.10;99.90
48768;DHT22;34933;40.968;14.538;2023-07-30T03:42:01;21.10;99.90
48768;DHT22;34933;40.968;14.538;2023-07-30T03:44:46;21.10;99.90
48768;DHT22;34933;40.968;14.538;2023-07-30T03:47:30;21.10;99.90
48768;DHT22;34933;40.968;14.538;2023-07-30T03:50:15;21.10;99.90
48768;DHT22;34933;40.968;14.538;2023-07-30T03:52:59;21.00;99.90
48768;DHT22;34933;40.968;14.538;2023-07-30T03:55:44;21.00;99.90
48768;DHT22;34933;40.968;14.538;2023-07-30T03:58:28;21.00;99.90
48768;DHT22;34933;40.968;14.538;2023-07-30T04:01:15;21.00;99.90
48768;DHT22;34933;40.968;14.538;2023-07-30T04:03:59;21.00;99.90
48768;DHT22;34933;40.968;14.538;2023-07-30T04:06:43;21.00;99.90
48768;DHT22;34933;40.968;14.538;2023-07-30T04:09:27;21.00;99.90
48768;DHT22;34933;40.968;14.538;2023-07-30T04:12:11;21.00;99.90
48768;DHT22;34933;40.968;14.538;2023-07-30T04:14:56;21.00;99.90
48768;DHT22;34933;40.968;14.538;2023-07-30T04:17:40;21.00;99.90
48768;DHT22;34933;40.968;14.538;2023-07-30T04:20:24;21.00;99.90
48768;DHT22;34933;40.968;14.538;2023-07-30T04:23:08;21.10;99.90
48768;DHT22;34933;40.968;14.538;2023-07-30T04:25:53;21.10;99.90
48768;DHT22;34933;40.968;14.538;2023-07-30T04:28:37;21.10;99.90
48768;DHT22;34933;40.968;14.538;2023-07-30T04:31:22;21.10;99.90
48768;DHT22;34933;40.968;14.538;2023-07-30T04:34:06;21.10;99.90
48768;DHT22;34933;40.968;14.538;2023-07-30T04:36:50;21.20;99.90
48768;DHT22;34933;40.968;14.538;2023-07-30T04:39:35;21.20;99.90
48768;DHT22;34933;40.968;14.538;2023-07-30T04:42:20;21.20;99.90
48768;DHT22;34933;40.968;14.538;2023-07-30T04:45:05;21.30;99.90
48768;DHT22;34933;40.968;14.538;2023-07-30T04:47:52;21.30;99.90
48768;DHT22;34933;40.968;14.538;2023-07-30T04:50:36;21.40;99.90
48768;DHT22;34933;40.968;14.538;2023-07-30T04:53:23;21.50;99.90
48768;DHT22;34933;40.968;14.538;2023-07-30T04:56:07;21.60;99.90
48768;DHT22;34933;40.968;14.538;2023-07-30T04:58:52;21.70;99.90
48768;DHT22;34933;40.968;14.538;2023-07-30T05:01:36;21.80;99.90
48768;DHT22;34933;40.968;14.538;2023-07-30T05:04:20;22.00;99.90
48768;DHT22;34933;40.968;14.538;2023-07-30T05:07:05;22.10;99.90
48768;DHT22;34933;40.968;14.538;2023-07-30T05:09:49;22.20;99.90
48768;DHT22;34933;40.968;14.538;2023-07-30T05:12:33;22.30;99.90
48768;DHT22;34933;40.968;14.538;2023-07-30T05:15:17;22.40;99.90
48768;DHT22;34933;40.968;14.538;2023-07-30T05:18:01;22.60;99.90
48768;DHT22;34933;40.968;14.538;2023-07-30T05:20:46;22.80;99.90
48768;DHT22;34933;40.968;14.538;2023-07-30T05:23:30;22.90;99.90
48768;DHT22;34933;40.968;14.538;2023-07-30T05:26:15;23.00;99.90
48768;DHT22;34933;40.968;14.538;2023-07-30T05:28:59;23.20;99.90
48768;DHT22;34933;40.968;14.538;2023-07-30T05:31:43;23.30;99.90
48768;DHT22;34933;40.968;14.538;2023-07-30T05:34:27;23.40;99.90
48768;DHT22;34933;40.968;14.538;2023-07-30T05:37:11;23.60;99.90
48768;DHT22;34933;40.968;14.538;2023-07-30T05:39:56;23.70;99.90
48768;DHT22;34933;40.968;14.538;2023-07-30T05:42:40;23.90;99.90
48768;DHT22;34933;40.968;14.538;2023-07-30T05:45:24;24.00;99.90
48768;DHT22;34933;40.968;14.538;2023-07-30T05:48:08;24.10;99.90
48768;DHT22;34933;40.968;14.538;2023-07-30T05:50:53;24.20;99.90
48768;DHT22;34933;40.968;14.538;2023-07-30T05:53:37;24.30;99.90
48768;DHT22;34933;40.968;14.538;2023-07-30T05:56:22;24.40;99.90
48768;DHT22;34933;40.968;14.538;2023-07-30T05:59:06;24.50;99.90
48768;DHT22;34933;40.968;14.538;2023-07-30T06:01:50;24.70;99.90
48768;DHT22;34933;40.968;14.538;2023-07-30T06:04:34;24.70;99.90
48768;DHT22;34933;40.968;14.538;2023-07-30T06:07:18;24.90;99.90
48768;DHT22;34933;40.968;14.538;2023-07-30T06:10:03;25.00;99.90
48768;DHT22;34933;40.968;14.538;2023-07-30T06:12:48;25.10;99.90
48768;DHT22;34933;40.968;14.538;2023-07-30T06:15:32;25.30;99.90
48768;DHT22;34933;40.968;14.538;2023-07-30T06:18:16;25.40;99.90
48768;DHT22;34933;40.968;14.538;2023-07-30T06:21:00;25.50;99.90
48768;DHT22;34933;40.968;14.538;2023-07-30T06:23:45;25.60;99.90
48768;DHT22;34933;40.968;14.538;2023-07-30T06:26:29;25.80;99.90
48768;DHT22;34933;40.968;14.538;2023-07-30T06:29:14;25.90;99.90
48768;DHT22;34933;40.968;14.538;2023-07-30T06:31:58;26.10;99.90
48768;DHT22;34933;40.968;14.538;2023-07-30T06:34:43;26.20;99.90
48768;DHT22;34933;40.968;14.538;2023-07-30T06:37:27;26.40;99.90
48768;DHT22;34933;40.968;14.538;2023-07-30T06:40:11;26.50;99.90
48768;DHT22;34933;40.968;14.538;2023-07-30T06:42:56;26.60;99.90
48768;DHT22;34933;40.968;14.538;2023-07-30T06:45:40;26.50;99.90
48768;DHT22;34933;40.968;14.538;2023-07-30T06:48:24;26.50;99.90
48768;DHT22;34933;40.968;14.538;2023-07-30T06:51:09;26.40;99.90
48768;DHT22;34933;40.968;14.538;2023-07-30T06:53:53;26.60;99.90
48768;DHT22;34933;40.968;14.538;2023-07-30T06:56:38;26.60;99.90
48768;DHT22;34933;40.968;14.538;2023-07-30T06:59:23;26.60;99.90
48768;DHT22;34933;40.968;14.538;2023-07-30T07:02:07;26.70;99.90
48768;DHT22;34933;40.968;14.538;2023-07-30T07:04:51;26.80;99.90
48768;DHT22;34933;40.968;14.538;2023-07-30T07:07:35;26.90;99.90
48768;DHT22;34933;40.968;14.538;2023-07-30T07:10:20;26.90;99.90
48768;DHT22;34933;40.968;14.538;2023-07-30T07:13:04;27.00;99.90
48768;DHT22;34933;40.968;14.538;2023-07-30T07:15:48;27.10;99.90
48768;DHT22;34933;40.968;14.538;2023-07-30T07:18:32;27.10;99.90
48768;DHT22;34933;40.968;14.538;2023-07-30T07:21:16;27.10;99.90
48768;DHT22;34933;40.968;14.538;2023-07-30T07:24:01;27.10;99.90
48768;DHT22;34933;40.968;14.538;2023-07-30T07:26:45;27.30;99.90
48768;DHT22;34933;40.968;14.538;2023-07-30T07:29:29;27.20;99.90
48768;DHT22;34933;40.968;14.538;2023-07-30T07:32:14;27.30;99.90
48768;DHT22;34933;40.968;14.538;2023-07-30T07:34:58;27.40;99.90
48768;DHT22;34933;40.968;14.538;2023-07-30T07:37:42;27.60;99.90
48768;DHT22;34933;40.968;14.538;2023-07-30T07:40:26;27.70;99.90
48768;DHT22;34933;40.968;14.538;2023-07-30T07:43:10;27.90;99.90
48768;DHT22;34933;40.968;14.538;2023-07-30T07:45:55;28.00;99.90
48768;DHT22;34933;40.968;14.538;2023-07-30T07:48:40;28.10;99.90
48768;DHT22;34933;40.968;14.538;2023-07-30T07:51:24;28.20;99.90
48768;DHT22;34933;40.968;14.538;2023-07-30T07:54:09;28.20;99.90
48768;DHT22;34933;40.968;14.538;2023-07-30T07:56:53;28.20;99.90
48768;DHT22;34933;40.968;14.538;2023-07-30T07:59:38;28.10;99.90
48768;DHT22;34933;40.968;14.538;2023-07-30T08:02:22;28.10;99.90
48768;DHT22;34933;40.968;14.538;2023-07-30T08:05:07;28.30;99.90
48768;DHT22;34933;40.968;14.538;2023-07-30T08:07:51;28.30;99.90
48768;DHT22;34933;40.968;14.538;2023-07-30T08:10:38;28.30;99.90
48768;DHT22;34933;40.968;14.538;2023-07-30T08:13:23;28.30;99.90
48768;DHT22;34933;40.968;14.538;2023-07-30T08:16:07;28.30;99.90
48768;DHT22;34933;40.968;14.538;2023-07-30T08:18:51;28.30;99.90
48768;DHT22;34933;40.968;14.538;2023-07-30T08:21:36;28.40;99.90
48768;DHT22;34933;40.968;14.538;2023-07-30T08:24:20;28.50;99.90
48768;DHT22;34933;40.968;14.538;2023-07-30T08:27:04;28.70;99.90
48768;DHT22;34933;40.968;14.538;2023-07-30T08:29:48;28.80;99.90
48768;DHT22;34933;40.968;14.538;2023-07-30T08:32:33;29.00;99.90
48768;DHT22;34933;40.968;14.538;2023-07-30T08:35:17;29.10;99.90
48768;DHT22;34933;40.968;14.538;2023-07-30T08:38:02;29.10;99.90
48768;DHT22;34933;40.968;14.538;2023-07-30T08:40:46;29.20;99.90
48768;DHT22;34933;40.968;14.538;2023-07-30T08:43:30;29.20;99.90
48768;DHT22;34933;40.968;14.538;2023-07-30T08:46:15;29.20;99.90
48768;DHT22;34933;40.968;14.538;2023-07-30T08:49:00;29.30;99.90
48768;DHT22;34933;40.968;14.538;2023-07-30T08:51:44;29.40;99.90
48768;DHT22;34933;40.968;14.538;2023-07-30T08:54:29;29.40;99.90
48768;DHT22;34933;40.968;14.538;2023-07-30T08:57:14;29.40;99.90
48768;DHT22;34933;40.968;14.538;2023-07-30T09:00:03;29.60;99.90
48768;DHT22;34933;40.968;14.538;2023-07-30T09:02:53;29.70;99.90
48768;DHT22;34933;40.968;14.538;2023-07-30T09:05:38;29.80;99.90
48768;DHT22;34933;40.968;14.538;2023-07-30T09:08:22;30.00;99.90
48768;DHT22;34933;40.968;14.538;2023-07-30T09:11:10;30.00;99.90
48768;DHT22;34933;40.968;14.538;2023-07-30T09:13:56;30.20;99.90
48768;DHT22;34933;40.968;14.538;2023-07-30T09:16:40;30.30;99.90
48768;DHT22;34933;40.968;14.538;2023-07-30T09:19:24;30.40;99.90
48768;DHT22;34933;40.968;14.538;2023-07-30T09:22:08;30.40;99.90
48768;DHT22;34933;40.968;14.538;2023-07-30T09:24:53;30.50;99.90
48768;DHT22;34933;40.968;14.538;2023-07-30T09:27:38;30.70;99.90
48768;DHT22;34933;40.968;14.538;2023-07-30T09:30:23;30.80;99.90
48768;DHT22;34933;40.968;14.538;2023-07-30T09:33:11;30.70;99.90
48768;DHT22;34933;40.968;14.538;2023-07-30T09:36:02;30.70;99.90
48768;DHT22;34933;40.968;14.538;2023-07-30T09:38:47;31.00;99.90
48768;DHT22;34933;40.968;14.538;2023-07-30T09:41:33;31.10;99.90
48768;DHT22;34933;40.968;14.538;2023-07-30T09:44:20;31.20;99.70
48768;DHT22;34933;40.968;14.538;2023-07-30T09:47:05;31.20;99.40
48768;DHT22;34933;40.968;14.538;2023-07-30T09:49:53;31.30;99.00
48768;DHT22;34933;40.968;14.538;2023-07-30T09:52:38;31.40;98.90
48768;DHT22;34933;40.968;14.538;2023-07-30T09:55:22;31.50;99.00
48768;DHT22;34933;40.968;14.538;2023-07-30T09:58:06;31.60;98.90
48768;DHT22;34933;40.968;14.538;2023-07-30T10:00:55;31.90;97.70
48768;DHT22;34933;40.968;14.538;2023-07-30T10:03:42;31.90;97.80
48768;DHT22;34933;40.968;14.538;2023-07-30T10:06:27;31.90;97.90
48768;DHT22;34933;40.968;14.538;2023-07-30T10:09:13;32.00;97.70
48768;DHT22;34933;40.968;14.538;2023-07-30T10:11:58;32.30;97.60
48768;DHT22;34933;40.968;14.538;2023-07-30T10:14:43;32.80;97.30
48768;DHT22;34933;40.968;14.538;2023-07-30T10:17:28;32.90;96.50
48768;DHT22;34933;40.968;14.538;2023-07-30T10:20:19;33.10;96.00
48768;DHT22;34933;40.968;14.538;2023-07-30T10:23:04;33.20;95.70
48768;DHT22;34933;40.968;14.538;2023-07-30T10:25:49;33.30;95.60
48768;DHT22;34933;40.968;14.538;2023-07-30T10:28:34;33.50;95.70
48768;DHT22;34933;40.968;14.538;2023-07-30T10:31:20;33.70;95.80
48768;DHT22;34933;40.968;14.538;2023-07-30T10:34:25;33.80;95.30
48768;DHT22;34933;40.968;14.538;2023-07-30T10:37:10;33.80;95.30
48768;DHT22;34933;40.968;14.538;2023-07-30T10:39:54;34.00;95.10
48768;DHT22;34933;40.968;14.538;2023-07-30T10:42:38;34.20;94.70
48768;DHT22;34933;40.968;14.538;2023-07-30T10:45:25;34.30;94.80
48768;DHT22;34933;40.968;14.538;2023-07-30T10:48:09;34.10;94.90
48768;DHT22;34933;40.968;14.538;2023-07-30T10:50:54;33.90;95.10
48768;DHT22;34933;40.968;14.538;2023-07-30T10:53:38;34.00;95.00
48768;DHT22;34933;40.968;14.538;2023-07-30T10:56:23;34.10;94.40
48768;DHT22;34933;40.968;14.538;2023-07-30T10:59:08;34.20;93.80
48768;DHT22;34933;40.968;14.538;2023-07-30T11:01:53;34.30;93.60
48768;DHT22;34933;40.968;14.538;2023-07-30T11:04:37;34.40;93.60
48768;DHT22;34933;40.968;14.538;2023-07-30T11:07:21;34.60;93.50
48768;DHT22;34933;40.968;14.538;2023-07-30T11:10:05;34.60;93.50
48768;DHT22;34933;40.968;14.538;2023-07-30T11:12:50;34.70;93.50
48768;DHT22;34933;40.968;14.538;2023-07-30T11:15:40;34.80;93.70
48768;DHT22;34933;40.968;14.538;2023-07-30T11:18:24;34.90;93.60
48768;DHT22;34933;40.968;14.538;2023-07-30T11:21:15;34.90;93.30
48768;DHT22;34933;40.968;14.538;2023-07-30T11:24:00;35.20;93.90
48768;DHT22;34933;40.968;14.538;2023-07-30T11:26:44;35.10;94.90
48768;DHT22;34933;40.968;14.538;2023-07-30T11:29:29;34.70;94.90
48768;DHT22;34933;40.968;14.538;2023-07-30T11:32:13;34.90;95.20
48768;DHT22;34933;40.968;14.538;2023-07-30T11:34:58;34.70;95.20
48768;DHT22;34933;40.968;14.538;2023-07-30T11:37:43;34.80;95.40
48768;DHT22;34933;40.968;14.538;2023-07-30T11:40:27;34.60;95.70
48768;DHT22;34933;40.968;14.538;2023-07-30T11:43:12;34.30;95.80
48768;DHT22;34933;40.968;14.538;2023-07-30T11:46:09;34.40;96.40
48768;DHT22;34933;40.968;14.538;2023-07-30T11:48:53;34.10;95.90
48768;DHT22;34933;40.968;14.538;2023-07-30T11:55:01;34.20;96.20
48768;DHT22;34933;40.968;14.538;2023-07-30T11:57:47;34.60;95.90
48768;DHT22;34933;40.968;14.538;2023-07-30T12:00:32;35.00;95.40
48768;DHT22;34933;40.968;14.538;2023-07-30T12:03:16;35.40;94.80
48768;DHT22;34933;40.968;14.538;2023-07-30T12:06:04;35.40;94.50
48768;DHT22;34933;40.968;14.538;2023-07-30T12:08:49;35.60;94.20
48768;DHT22;34933;40.968;14.538;2023-07-30T12:11:33;36.30;93.70
48768;DHT22;34933;40.968;14.538;2023-07-30T12:14:18;36.60;93.00
48768;DHT22;34933;40.968;14.538;2023-07-30T12:17:03;36.80;92.60
48768;DHT22;34933;40.968;14.538;2023-07-30T12:19:47;37.00;92.70
48768;DHT22;34933;40.968;14.538;2023-07-30T12:22:34;36.90;92.70
48768;DHT22;34933;40.968;14.538;2023-07-30T12:25:22;36.60;93.30
48768;DHT22;34933;40.968;14.538;2023-07-30T12:28:06;36.60;93.20
48768;DHT22;34933;40.968;14.538;2023-07-30T12:30:50;36.70;92.50
48768;DHT22;34933;40.968;14.538;2023-07-30T12:33:34;36.30;92.30
48768;DHT22;34933;40.968;14.538;2023-07-30T12:36:19;35.80;93.00
48768;DHT22;34933;40.968;14.538;2023-07-30T12:39:03;36.60;91.60
48768;DHT22;34933;40.968;14.538;2023-07-30T12:41:47;37.20;91.80
48768;DHT22;34933;40.968;14.538;2023-07-30T12:44:32;37.80;91.00
48768;DHT22;34933;40.968;14.538;2023-07-30T12:47:16;38.20;90.90
48768;DHT22;34933;40.968;14.538;2023-07-30T12:50:00;38.10;91.30
48768;DHT22;34933;40.968;14.538;2023-07-30T12:52:45;38.70;90.40
48768;DHT22;34933;40.968;14.538;2023-07-30T12:55:30;38.40;90.80
48768;DHT22;34933;40.968;14.538;2023-07-30T12:58:15;37.90;90.80
48768;DHT22;34933;40.968;14.538;2023-07-30T13:00:59;37.90;91.00
48768;DHT22;34933;40.968;14.538;2023-07-30T13:03:43;38.10;90.20
48768;DHT22;34933;40.968;14.538;2023-07-30T13:06:30;38.70;90.20
48768;DHT22;34933;40.968;14.538;2023-07-30T13:09:14;39.30;89.80
48768;DHT22;34933;40.968;14.538;2023-07-30T13:11:58;38.90;90.10
48768;DHT22;34933;40.968;14.538;2023-07-30T13:14:42;39.20;89.10
48768;DHT22;34933;40.968;14.538;2023-07-30T13:17:27;39.70;88.90
48768;DHT22;34933;40.968;14.538;2023-07-30T13:20:11;40.40;88.50
48768;DHT22;34933;40.968;14.538;2023-07-30T13:22:55;40.40;87.20
48768;DHT22;34933;40.968;14.538;2023-07-30T13:25:39;40.60;86.10
48768;DHT22;34933;40.968;14.538;2023-07-30T13:28:23;40.40;87.30
48768;DHT22;34933;40.968;14.538;2023-07-30T13:31:08;38.90;88.50
48768;DHT22;34933;40.968;14.538;2023-07-30T13:33:52;38.80;89.70
48768;DHT22;34933;40.968;14.538;2023-07-30T13:36:36;38.80;90.30
48768;DHT22;34933;40.968;14.538;2023-07-30T13:39:20;38.50;90.10
48768;DHT22;34933;40.968;14.538;2023-07-30T13:42:04;37.90;90.70
48768;DHT22;34933;40.968;14.538;2023-07-30T13:44:49;37.60;90.80
48768;DHT22;34933;40.968;14.538;2023-07-30T13:47:33;38.70;90.50
48768;DHT22;34933;40.968;14.538;2023-07-30T13:50:18;39.30;89.70
48768;DHT22;34933;40.968;14.538;2023-07-30T13:53:02;39.60;89.30
48768;DHT22;34933;40.968;14.538;2023-07-30T13:55:46;40.20;88.20
48768;DHT22;34933;40.968;14.538;2023-07-30T13:58:30;41.10;86.80
48768;DHT22;34933;40.968;14.538;2023-07-30T14:01:15;40.70;87.10
48768;DHT22;34933;40.968;14.538;2023-07-30T14:03:59;40.40;88.10
48768;DHT22;34933;40.968;14.538;2023-07-30T14:06:44;40.00;87.80
48768;DHT22;34933;40.968;14.538;2023-07-30T14:09:29;40.30;88.00
48768;DHT22;34933;40.968;14.538;2023-07-30T14:12:17;41.00;87.00
48768;DHT22;34933;40.968;14.538;2023-07-30T14:15:01;40.40;86.80
48768;DHT22;34933;40.968;14.538;2023-07-30T14:17:46;40.80;85.80
48768;DHT22;34933;40.968;14.538;2023-07-30T14:20:30;39.90;87.60
48768;DHT22;34933;40.968;14.538;2023-07-30T14:23:14;40.20;86.80
48768;DHT22;34933;40.968;14.538;2023-07-30T14:25:59;40.80;86.70
48768;DHT22;34933;40.968;14.538;2023-07-30T14:28:43;40.80;85.70
48768;DHT22;34933;40.968;14.538;2023-07-30T14:31:27;41.10;85.50
48768;DHT22;34933;40.968;14.538;2023-07-30T14:34:11;40.90;85.00
48768;DHT22;34933;40.968;14.538;2023-07-30T14:36:56;41.80;83.70
48768;DHT22;34933;40.968;14.538;2023-07-30T14:39:40;42.80;82.30
48768;DHT22;34933;40.968;14.538;2023-07-30T14:42:25;42.60;80.90
48768;DHT22;34933;40.968;14.538;2023-07-30T14:45:09;42.60;81.30
48768;DHT22;34933;40.968;14.538;2023-07-30T14:47:54;42.90;80.20
48768;DHT22;34933;40.968;14.538;2023-07-30T14:50:38;41.90;80.70
48768;DHT22;34933;40.968;14.538;2023-07-30T14:53:22;40.90;81.50
48768;DHT22;34933;40.968;14.538;2023-07-30T14:56:06;41.00;80.90
48768;DHT22;34933;40.968;14.538;2023-07-30T14:58:51;39.80;82.10
48768;DHT22;34933;40.968;14.538;2023-07-30T15:01:35;39.80;81.30
48768;DHT22;34933;40.968;14.538;2023-07-30T15:04:20;39.50;82.00
48768;DHT22;34933;40.968;14.538;2023-07-30T15:07:04;39.50;82.00
48768;DHT22;34933;40.968;14.538;2023-07-30T15:09:48;39.30;81.90
48768;DHT22;34933;40.968;14.538;2023-07-30T15:12:33;39.70;81.30
48768;DHT22;34933;40.968;14.538;2023-07-30T15:15:17;39.80;80.30
48768;DHT22;34933;40.968;14.538;2023-07-30T15:18:01;39.80;80.80
48768;DHT22;34933;40.968;14.538;2023-07-30T15:20:45;40.30;80.50
48768;DHT22;34933;40.968;14.538;2023-07-30T15:23:30;40.10;79.90
48768;DHT22;34933;40.968;14.538;2023-07-30T15:26:14;39.70;80.20
48768;DHT22;34933;40.968;14.538;2023-07-30T15:28:59;40.20;80.40
48768;DHT22;34933;40.968;14.538;2023-07-30T15:31:44;40.20;79.60
48768;DHT22;34933;40.968;14.538;2023-07-30T15:34:29;39.20;80.90
48768;DHT22;34933;40.968;14.538;2023-07-30T15:37:13;39.10;81.30
48768;DHT22;34933;40.968;14.538;2023-07-30T15:39:57;39.80;80.70
48768;DHT22;34933;40.968;14.538;2023-07-30T15:42:41;40.30;80.40
48768;DHT22;34933;40.968;14.538;2023-07-30T15:45:25;40.30;80.00
48768;DHT22;34933;40.968;14.538;2023-07-30T15:48:09;40.20;79.80
48768;DHT22;34933;40.968;14.538;2023-07-30T15:50:54;39.70;80.30
48768;DHT22;34933;40.968;14.538;2023-07-30T15:53:38;39.30;80.70
48768;DHT22;34933;40.968;14.538;2023-07-30T15:56:22;39.10;81.80
48768;DHT22;34933;40.968;14.538;2023-07-30T15:59:06;39.30;81.30
48768;DHT22;34933;40.968;14.538;2023-07-30T16:01:52;39.00;81.70
48768;DHT22;34933;40.968;14.538;2023-07-30T16:04:37;38.80;82.10
48768;DHT22;34933;40.968;14.538;2023-07-30T16:07:22;38.10;83.20
48768;DHT22;34933;40.968;14.538;2023-07-30T16:10:06;38.60;82.80
48768;DHT22;34933;40.968;14.538;2023-07-30T16:12:51;38.40;82.30
48768;DHT22;34933;40.968;14.538;2023-07-30T16:15:36;38.50;83.20
48768;DHT22;34933;40.968;14.538;2023-07-30T16:18:20;38.80;82.50
48768;DHT22;34933;40.968;14.538;2023-07-30T16:21:04;38.10;83.40
48768;DHT22;34933;40.968;14.538;2023-07-30T16:23:49;37.40;84.60
48768;DHT22;34933;40.968;14.538;2023-07-30T16:26:33;37.40;84.60
48768;DHT22;34933;40.968;14.538;2023-07-30T16:29:17;37.40;84.50
48768;DHT22;34933;40.968;14.538;2023-07-30T16:32:02;37.60;84.90
48768;DHT22;34933;40.968;14.538;2023-07-30T16:34:46;37.70;84.50
48768;DHT22;34933;40.968;14.538;2023-07-30T16:37:31;36.30;86.90
48768;DHT22;34933;40.968;14.538;2023-07-30T16:40:15;36.20;87.20
48768;DHT22;34933;40.968;14.538;2023-07-30T16:43:00;36.00;88.20
48768;DHT22;34933;40.968;14.538;2023-07-30T16:45:44;36.10;88.10
48768;DHT22;34933;40.968;14.538;2023-07-30T16:48:29;35.90;89.20
48768;DHT22;34933;40.968;14.538;2023-07-30T16:51:14;36.30;89.70
48768;DHT22;34933;40.968;14.538;2023-07-30T16:53:59;36.60;89.90
48768;DHT22;34933;40.968;14.538;2023-07-30T16:56:44;36.10;90.50
48768;DHT22;34933;40.968;14.538;2023-07-30T16:59:28;35.70;91.10
48768;DHT22;34933;40.968;14.538;2023-07-30T17:02:12;35.80;91.50
48768;DHT22;34933;40.968;14.538;2023-07-30T17:04:56;35.90;91.60
48768;DHT22;34933;40.968;14.538;2023-07-30T17:07:40;35.30;92.30